sensor_id;sensor_type;location;lat;lon;timestamp;pressure;altitude;pressure_sealevel;temperature;humidity
25430;BME280;13360;48.152;-1.788;2023-04-03T00:01:29;102681.94;;;9.99;100.00
25430;BME280;13360;48.152;-1.788;2023-04-03T00:03:55;102681.84;;;9.94;100.00
25430;BME280;13360;48.152;-1.788;2023-04-03T00:06:21;102666.84;;;9.90;100.00
25430;BME280;13360;48.152;-1.788;2023-04-03T00:08:46;102669.50;;;9.85;100.00
25430;BME280;13360;48.152;-1.788;2023-04-03T00:11:12;102663.66;;;9.81;100.00
25430;BME280;13360;48.152;-1.788;2023-04-03T00:13:38;102658.59;;;9.78;100.00
25430;BME280;13360;48.152;-1.788;2023-04-03T00:16:03;102660.19;;;9.74;100.00
25430;BME280;13360;48.152;-1.788;2023-04-03T00:18:30;102658.75;;;9.71;100.00
25430;BME280;13360;48.152;-1.788;2023-04-03T00:20:56;102663.19;;;9.72;100.00
25430;BME280;13360;48.152;-1.788;2023-04-03T00:23:21;102657.66;;;9.72;100.00
25430;BME280;13360;48.152;-1.788;2023-04-03T00:25:49;102654.06;;;9.72;100.00
25430;BME280;13360;48.152;-1.788;2023-04-03T00:28:15;102642.69;;;9.68;100.00
25430;BME280;13360;48.152;-1.788;2023-04-03T00:30:40;102629.38;;;9.65;100.00
25430;BME280;13360;48.152;-1.788;2023-04-03T00:33:06;102635.63;;;9.61;100.00
25430;BME280;13360;48.152;-1.788;2023-04-03T00:35:31;102638.03;;;9.57;100.00
25430;BME280;13360;48.152;-1.788;2023-04-03T00:37:57;102638.50;;;9.54;100.00
25430;BME280;13360;48.152;-1.788;2023-04-03T00:40:24;102637.31;;;9.50;100.00
25430;BME280;13360;48.152;-1.788;2023-04-03T00:42:58;102640.34;;;9.48;100.00
25430;BME280;13360;48.152;-1.788;2023-04-03T00:45:34;102633.03;;;9.42;100.00
25430;BME280;13360;48.152;-1.788;2023-04-03T00:48:02;102632.78;;;9.44;100.00
25430;BME280;13360;48.152;-1.788;2023-04-03T00:50:30;102635.56;;;9.44;100.00
25430;BME280;13360;48.152;-1.788;2023-04-03T00:52:58;102641.91;;;9.44;100.00
25430;BME280;13360;48.152;-1.788;2023-04-03T00:55:24;102632.44;;;9.40;100.00
25430;BME280;13360;48.152;-1.788;2023-04-03T00:57:51;102614.47;;;9.38;100.00
25430;BME280;13360;48.152;-1.788;2023-04-03T01:00:19;102618.91;;;9.39;100.00
25430;BME280;13360;48.152;-1.788;2023-04-03T01:02:45;102613.00;;;9.35;100.00
25430;BME280;13360;48.152;-1.788;2023-04-03T01:05:11;102615.41;;;9.32;100.00
25430;BME280;13360;48.152;-1.788;2023-04-03T01:07:38;102603.19;;;9.28;100.00
25430;BME280;13360;48.152;-1.788;2023-04-03T01:10:07;102606.22;;;9.26;100.00
25430;BME280;13360;48.152;-1.788;2023-04-03T01:12:35;102596.75;;;9.22;100.00
25430;BME280;13360;48.152;-1.788;2023-04-03T01:15:05;102585.63;;;9.17;100.00
25430;BME280;13360;48.152;-1.788;2023-04-03T01:17:40;102588.59;;;9.15;100.00
25430;BME280;13360;48.152;-1.788;2023-04-03T01:20:42;102586.91;;;9.14;100.00
25430;BME280;13360;48.152;-1.788;2023-04-03T01:25:47;102577.34;;;9.05;100.00
25430;BME280;13360;48.152;-1.788;2023-04-03T01:28:27;102571.50;;;9.02;100.00
25430;BME280;13360;48.152;-1.788;2023-04-03T01:30:56;102574.00;;;9.03;100.00
25430;BME280;13360;48.152;-1.788;2023-04-03T01:33:25;102574.84;;;9.04;100.00
25430;BME280;13360;48.152;-1.788;2023-04-03T01:35:50;102577.84;;;9.02;100.00
25430;BME280;13360;48.152;-1.788;2023-04-03T01:38:16;102564.78;;;8.98;100.00
25430;BME280;13360;48.152;-1.788;2023-04-03T01:40:41;102562.72;;;8.93;100.00
25430;BME280;13360;48.152;-1.788;2023-04-03T01:43:07;102562.38;;;8.90;100.00
25430;BME280;13360;48.152;-1.788;2023-04-03T01:45:32;102564.53;;;8.88;100.00
25430;BME280;13360;48.152;-1.788;2023-04-03T01:47:58;102557.84;;;8.83;100.00
25430;BME280;13360;48.152;-1.788;2023-04-03T01:50:23;102551.25;;;8.84;100.00
25430;BME280;13360;48.152;-1.788;2023-04-03T01:52:48;102543.47;;;8.81;100.00
25430;BME280;13360;48.152;-1.788;2023-04-03T01:55:14;102535.69;;;8.78;100.00
25430;BME280;13360;48.152;-1.788;2023-04-03T01:57:40;102536.41;;;8.74;100.00
25430;BME280;13360;48.152;-1.788;2023-04-03T02:00:06;102538.31;;;8.73;100.00
25430;BME280;13360;48.152;-1.788;2023-04-03T02:02:32;102533.28;;;8.70;100.00
25430;BME280;13360;48.152;-1.788;2023-04-03T02:04:58;102533.78;;;8.67;100.00
25430;BME280;13360;48.152;-1.788;2023-04-03T02:07:23;102530.19;;;8.67;100.00
25430;BME280;13360;48.152;-1.788;2023-04-03T02:09:49;102537.38;;;8.68;100.00
25430;BME280;13360;48.152;-1.788;2023-04-03T02:12:14;102531.03;;;8.67;100.00
25430;BME280;13360;48.152;-1.788;2023-04-03T02:14:39;102524.91;;;8.65;100.00
25430;BME280;13360;48.152;-1.788;2023-04-03T02:17:05;102521.81;;;8.62;100.00
25430;BME280;13360;48.152;-1.788;2023-04-03T02:19:34;102524.56;;;8.62;100.00
25430;BME280;13360;48.152;-1.788;2023-04-03T02:21:59;102523.47;;;8.63;100.00
25430;BME280;13360;48.152;-1.788;2023-04-03T02:24:25;102536.19;;;8.64;100.00
25430;BME280;13360;48.152;-1.788;2023-04-03T02:26:50;102537.00;;;8.64;100.00
25430;BME280;13360;48.152;-1.788;2023-04-03T02:29:16;102527.91;;;8.64;100.00
25430;BME280;13360;48.152;-1.788;2023-04-03T02:31:41;102537.84;;;8.65;100.00
25430;BME280;13360;48.152;-1.788;2023-04-03T02:34:06;102532.81;;;8.62;100.00
25430;BME280;13360;48.152;-1.788;2023-04-03T02:36:32;102534.97;;;8.60;100.00
25430;BME280;13360;48.152;-1.788;2023-04-03T02:38:57;102538.81;;;8.59;100.00
25430;BME280;13360;48.152;-1.788;2023-04-03T02:41:22;102544.81;;;8.55;100.00
25430;BME280;13360;48.152;-1.788;2023-04-03T02:43:50;102544.66;;;8.50;100.00
25430;BME280;13360;48.152;-1.788;2023-04-03T02:46:15;102568.88;;;8.60;100.00
25430;BME280;13360;48.152;-1.788;2023-04-03T02:48:41;102579.53;;;8.57;100.00
25430;BME280;13360;48.152;-1.788;2023-04-03T02:51:06;102592.94;;;8.65;100.00
25430;BME280;13360;48.152;-1.788;2023-04-03T02:53:31;102601.22;;;8.65;100.00
25430;BME280;13360;48.152;-1.788;2023-04-03T02:55:57;102605.66;;;8.66;100.00
25430;BME280;13360;48.152;-1.788;2023-04-03T02:58:22;102613.19;;;8.70;100.00
25430;BME280;13360;48.152;-1.788;2023-04-03T03:00:48;102614.84;;;8.71;100.00
25430;BME280;13360;48.152;-1.788;2023-04-03T03:03:13;102617.28;;;8.79;100.00
25430;BME280;13360;48.152;-1.788;2023-04-03T03:05:39;102626.97;;;8.82;100.00
25430;BME280;13360;48.152;-1.788;2023-04-03T03:08:05;102629.84;;;8.87;100.00
25430;BME280;13360;48.152;-1.788;2023-04-03T03:10:30;102627.94;;;8.88;100.00
25430;BME280;13360;48.152;-1.788;2023-04-03T03:12:56;102629.25;;;8.85;100.00
25430;BME280;13360;48.152;-1.788;2023-04-03T03:15:21;102627.09;;;8.75;100.00
25430;BME280;13360;48.152;-1.788;2023-04-03T03:17:46;102639.56;;;8.78;100.00
25430;BME280;13360;48.152;-1.788;2023-04-03T03:20:12;102652.50;;;8.77;100.00
25430;BME280;13360;48.152;-1.788;2023-04-03T03:22:40;102645.91;;;8.78;100.00
25430;BME280;13360;48.152;-1.788;2023-04-03T03:25:05;102656.69;;;8.80;100.00
25430;BME280;13360;48.152;-1.788;2023-04-03T03:27:31;102651.19;;;8.80;100.00
25430;BME280;13360;48.152;-1.788;2023-04-03T03:29:56;102657.28;;;8.82;100.00
25430;BME280;13360;48.152;-1.788;2023-04-03T03:32:22;102652.59;;;8.71;100.00
25430;BME280;13360;48.152;-1.788;2023-04-03T03:34:47;102650.19;;;8.74;100.00
25430;BME280;13360;48.152;-1.788;2023-04-03T03:37:12;102648.63;;;8.55;100.00
25430;BME280;13360;48.152;-1.788;2023-04-03T03:39:38;102656.44;;;8.70;100.00
25430;BME280;13360;48.152;-1.788;2023-04-03T03:42:03;102667.69;;;8.68;100.00
25430;BME280;13360;48.152;-1.788;2023-04-03T03:44:29;102667.81;;;8.73;100.00
25430;BME280;13360;48.152;-1.788;2023-04-03T03:46:54;102663.53;;;8.77;100.00
25430;BME280;13360;48.152;-1.788;2023-04-03T03:49:20;102669.88;;;8.78;100.00
25430;BME280;13360;48.152;-1.788;2023-04-03T03:51:46;102659.06;;;8.65;100.00
25430;BME280;13360;48.152;-1.788;2023-04-03T03:54:12;102653.75;;;8.51;100.00
25430;BME280;13360;48.152;-1.788;2023-04-03T03:56:37;102660.09;;;8.40;100.00
25430;BME280;13360;48.152;-1.788;2023-04-03T03:59:03;102661.88;;;8.35;100.00
25430;BME280;13360;48.152;-1.788;2023-04-03T04:01:28;102645.63;;;8.15;100.00
25430;BME280;13360;48.152;-1.788;2023-04-03T04:03:54;102657.38;;;8.22;100.00
25430;BME280;13360;48.152;-1.788;2023-04-03T04:06:20;102649.59;;;8.19;100.00
25430;BME280;13360;48.152;-1.788;2023-04-03T04:08:46;102609.25;;;8.13;100.00
25430;BME280;13360;48.152;-1.788;2023-04-03T04:11:11;102591.66;;;8.14;100.00
25430;BME280;13360;48.152;-1.788;2023-04-03T04:13:37;102566.72;;;8.09;100.00
25430;BME280;13360;48.152;-1.788;2023-04-03T04:16:02;102581.66;;;8.01;100.00
25430;BME280;13360;48.152;-1.788;2023-04-03T04:18:28;102575.97;;;8.14;100.00
25430;BME280;13360;48.152;-1.788;2023-04-03T04:20:53;102552.72;;;8.10;100.00
25430;BME280;13360;48.152;-1.788;2023-04-03T04:23:18;102564.25;;;8.19;100.00
25430;BME280;13360;48.152;-1.788;2023-04-03T04:25:45;102558.88;;;8.12;100.00
25430;BME280;13360;48.152;-1.788;2023-04-03T04:28:11;102553.72;;;8.16;100.00
25430;BME280;13360;48.152;-1.788;2023-04-03T04:30:36;102546.16;;;8.11;100.00
25430;BME280;13360;48.152;-1.788;2023-04-03T04:33:02;102552.63;;;8.17;100.00
25430;BME280;13360;48.152;-1.788;2023-04-03T04:35:27;102545.47;;;8.16;100.00
25430;BME280;13360;48.152;-1.788;2023-04-03T04:37:53;102541.63;;;8.17;100.00
25430;BME280;13360;48.152;-1.788;2023-04-03T04:40:18;102545.47;;;8.16;100.00
25430;BME280;13360;48.152;-1.788;2023-04-03T04:42:43;102539.81;;;8.11;100.00
25430;BME280;13360;48.152;-1.788;2023-04-03T04:45:09;102542.09;;;8.14;100.00
25430;BME280;13360;48.152;-1.788;2023-04-03T04:47:35;102526.88;;;8.11;100.00
25430;BME280;13360;48.152;-1.788;2023-04-03T04:50:00;102535.28;;;8.16;100.00
25430;BME280;13360;48.152;-1.788;2023-04-03T04:52:25;102524.84;;;8.07;100.00
25430;BME280;13360;48.152;-1.788;2023-04-03T04:54:51;102525.84;;;8.12;100.00
25430;BME280;13360;48.152;-1.788;2023-04-03T04:57:16;102521.75;;;8.15;100.00
25430;BME280;13360;48.152;-1.788;2023-04-03T04:59:42;102504.13;;;8.04;100.00
25430;BME280;13360;48.152;-1.788;2023-04-03T05:02:07;102526.03;;;7.99;100.00
25430;BME280;13360;48.152;-1.788;2023-04-03T05:04:33;102511.91;;;7.95;100.00
25430;BME280;13360;48.152;-1.788;2023-04-03T05:06:58;102530.09;;;8.08;100.00
25430;BME280;13360;48.152;-1.788;2023-04-03T05:09:24;102525.19;;;8.10;100.00
25430;BME280;13360;48.152;-1.788;2023-04-03T05:11:49;102510.38;;;8.11;100.00
25430;BME280;13360;48.152;-1.788;2023-04-03T05:14:15;102515.41;;;8.14;100.00
25430;BME280;13360;48.152;-1.788;2023-04-03T05:16:41;102509.41;;;7.94;100.00
25430;BME280;13360;48.152;-1.788;2023-04-03T05:19:06;102513.00;;;7.94;100.00
25430;BME280;13360;48.152;-1.788;2023-04-03T05:21:32;102511.44;;;7.99;100.00
25430;BME280;13360;48.152;-1.788;2023-04-03T05:23:58;102514.06;;;7.93;100.00
25430;BME280;13360;48.152;-1.788;2023-04-03T05:26:27;102514.78;;;8.01;100.00
25430;BME280;13360;48.152;-1.788;2023-04-03T05:28:53;102496.97;;;7.91;100.00
25430;BME280;13360;48.152;-1.788;2023-04-03T05:31:18;102506.88;;;7.92;100.00
25430;BME280;13360;48.152;-1.788;2023-04-03T05:33:43;102501.22;;;7.87;100.00
25430;BME280;13360;48.152;-1.788;2023-04-03T05:36:09;102503.50;;;7.90;100.00
25430;BME280;13360;48.152;-1.788;2023-04-03T05:38:35;102488.53;;;7.86;100.00
25430;BME280;13360;48.152;-1.788;2023-04-03T05:41:00;102497.31;;;7.95;100.00
25430;BME280;13360;48.152;-1.788;2023-04-03T05:43:25;102501.50;;;7.98;100.00
25430;BME280;13360;48.152;-1.788;2023-04-03T05:45:51;102481.88;;;7.94;100.00
25430;BME280;13360;48.152;-1.788;2023-04-03T05:48:17;102492.41;;;7.97;100.00
25430;BME280;13360;48.152;-1.788;2023-04-03T05:50:42;102489.38;;;7.87;100.00
25430;BME280;13360;48.152;-1.788;2023-04-03T05:53:17;102487.34;;;7.82;100.00
25430;BME280;13360;48.152;-1.788;2023-04-03T05:55:43;102485.69;;;7.81;100.00
25430;BME280;13360;48.152;-1.788;2023-04-03T05:58:08;102472.59;;;7.65;100.00
25430;BME280;13360;48.152;-1.788;2023-04-03T06:00:33;102496.91;;;7.80;100.00
25430;BME280;13360;48.152;-1.788;2023-04-03T06:02:59;102483.53;;;7.42;100.00
25430;BME280;13360;48.152;-1.788;2023-04-03T06:05:24;102499.19;;;7.41;100.00
25430;BME280;13360;48.152;-1.788;2023-04-03T06:07:49;102509.16;;;7.54;100.00
25430;BME280;13360;48.152;-1.788;2023-04-03T06:10:15;102510.97;;;7.60;100.00
25430;BME280;13360;48.152;-1.788;2023-04-03T06:12:41;102510.19;;;7.71;100.00
25430;BME280;13360;48.152;-1.788;2023-04-03T06:15:07;102489.22;;;7.70;100.00
25430;BME280;13360;48.152;-1.788;2023-04-03T06:17:33;102495.00;;;7.80;100.00
25430;BME280;13360;48.152;-1.788;2023-04-03T06:19:58;102491.44;;;7.91;100.00
25430;BME280;13360;48.152;-1.788;2023-04-03T06:22:24;102470.34;;;7.74;100.00
25430;BME280;13360;48.152;-1.788;2023-04-03T06:24:50;102488.53;;;7.86;100.00
25430;BME280;13360;48.152;-1.788;2023-04-03T06:27:16;102504.84;;;8.00;100.00
25430;BME280;13360;48.152;-1.788;2023-04-03T06:29:41;102467.72;;;7.90;100.00
25430;BME280;13360;48.152;-1.788;2023-04-03T06:32:07;102466.69;;;7.91;100.00
25430;BME280;13360;48.152;-1.788;2023-04-03T06:34:32;102479.00;;;8.01;100.00
25430;BME280;13360;48.152;-1.788;2023-04-03T06:36:58;102481.88;;;8.06;100.00
25430;BME280;13360;48.152;-1.788;2023-04-03T06:39:23;102492.31;;;8.15;100.00
25430;BME280;13360;48.152;-1.788;2023-04-03T06:41:50;102487.28;;;8.12;100.00
25430;BME280;13360;48.152;-1.788;2023-04-03T06:44:16;102482.72;;;8.06;100.00
25430;BME280;13360;48.152;-1.788;2023-04-03T06:46:42;102504.75;;;8.18;100.00
25430;BME280;13360;48.152;-1.788;2023-04-03T06:49:08;102504.63;;;8.24;100.00
25430;BME280;13360;48.152;-1.788;2023-04-03T06:51:36;102494.94;;;8.22;100.00
25430;BME280;13360;48.152;-1.788;2023-04-03T06:54:02;102473.88;;;8.16;100.00
25430;BME280;13360;48.152;-1.788;2023-04-03T06:56:28;102489.91;;;8.19;100.00
25430;BME280;13360;48.152;-1.788;2023-04-03T06:58:55;102474.38;;;8.13;100.00
25430;BME280;13360;48.152;-1.788;2023-04-03T07:01:23;102479.88;;;8.13;100.00
25430;BME280;13360;48.152;-1.788;2023-04-03T07:03:50;102484.91;;;8.16;100.00
25430;BME280;13360;48.152;-1.788;2023-04-03T07:06:16;102482.72;;;8.06;100.00
25430;BME280;13360;48.152;-1.788;2023-04-03T07:08:43;102493.84;;;8.11;100.00
25430;BME280;13360;48.152;-1.788;2023-04-03T07:11:10;102488.25;;;8.18;100.00
25430;BME280;13360;48.152;-1.788;2023-04-03T07:13:36;102476.97;;;7.96;100.00
25430;BME280;13360;48.152;-1.788;2023-04-03T07:16:02;102479.94;;;7.83;100.00
25430;BME280;13360;48.152;-1.788;2023-04-03T07:18:29;102474.78;;;7.86;100.00
25430;BME280;13360;48.152;-1.788;2023-04-03T07:20:54;102467.53;;;7.92;100.00
25430;BME280;13360;48.152;-1.788;2023-04-03T07:23:19;102466.19;;;7.83;100.00
25430;BME280;13360;48.152;-1.788;2023-04-03T07:25:47;102468.81;;;7.89;100.00
25430;BME280;13360;48.152;-1.788;2023-04-03T07:28:13;102477.06;;;7.89;100.00
25430;BME280;13360;48.152;-1.788;2023-04-03T07:30:45;102464.88;;;7.85;100.00
25430;BME280;13360;48.152;-1.788;2023-04-03T07:33:12;102463.53;;;7.76;100.00
25430;BME280;13360;48.152;-1.788;2023-04-03T07:35:38;102472.41;;;7.78;100.00
25430;BME280;13360;48.152;-1.788;2023-04-03T07:38:03;102482.25;;;7.98;100.00
25430;BME280;13360;48.152;-1.788;2023-04-03T07:40:29;102469.56;;;8.08;100.00
25430;BME280;13360;48.152;-1.788;2023-04-03T07:42:54;102468.72;;;8.08;100.00
25430;BME280;13360;48.152;-1.788;2023-04-03T07:45:21;102472.31;;;8.08;100.00
25430;BME280;13360;48.152;-1.788;2023-04-03T07:47:48;102456.03;;;7.95;100.00
25430;BME280;13360;48.152;-1.788;2023-04-03T07:50:13;102469.09;;;8.00;100.00
25430;BME280;13360;48.152;-1.788;2023-04-03T07:52:38;102462.88;;;7.92;100.00
25430;BME280;13360;48.152;-1.788;2023-04-03T07:55:04;102480.31;;;8.10;100.00
25430;BME280;13360;48.152;-1.788;2023-04-03T07:57:29;102470.78;;;8.24;100.00
25430;BME280;13360;48.152;-1.788;2023-04-03T07:59:55;102462.28;;;8.25;100.00
25430;BME280;13360;48.152;-1.788;2023-04-03T08:02:20;102476.41;;;8.17;100.00
25430;BME280;13360;48.152;-1.788;2023-04-03T08:04:45;102501.31;;;8.46;100.00
25430;BME280;13360;48.152;-1.788;2023-04-03T08:07:11;102463.84;;;8.33;100.00
25430;BME280;13360;48.152;-1.788;2023-04-03T08:09:36;102476.03;;;8.14;100.00
25430;BME280;13360;48.152;-1.788;2023-04-03T08:12:02;102466.94;;;8.13;100.00
25430;BME280;13360;48.152;-1.788;2023-04-03T08:14:30;102451.72;;;8.11;100.00
25430;BME280;13360;48.152;-1.788;2023-04-03T08:16:56;102483.69;;;8.12;100.00
25430;BME280;13360;48.152;-1.788;2023-04-03T08:19:21;102482.16;;;8.16;100.00
25430;BME280;13360;48.152;-1.788;2023-04-03T08:21:47;102514.97;;;8.41;100.00
25430;BME280;13360;48.152;-1.788;2023-04-03T08:24:12;102520.63;;;8.58;100.00
25430;BME280;13360;48.152;-1.788;2023-04-03T08:26:37;102506.56;;;8.71;100.00
25430;BME280;13360;48.152;-1.788;2023-04-03T08:29:03;102459.88;;;8.52;100.00
25430;BME280;13360;48.152;-1.788;2023-04-03T08:31:29;102465.38;;;8.52;100.00
25430;BME280;13360;48.152;-1.788;2023-04-03T08:33:56;102495.06;;;8.27;100.00
25430;BME280;13360;48.152;-1.788;2023-04-03T08:36:24;102507.34;;;8.54;100.00
25430;BME280;13360;48.152;-1.788;2023-04-03T08:38:50;102496.03;;;8.68;100.00
25430;BME280;13360;48.152;-1.788;2023-04-03T08:41:29;102453.28;;;8.53;100.00
25430;BME280;13360;48.152;-1.788;2023-04-03T08:49:49;102467.19;;;8.59;100.00
25430;BME280;13360;48.152;-1.788;2023-04-03T08:57:43;102495.44;;;8.77;100.00
25430;BME280;13360;48.152;-1.788;2023-04-03T09:02:44;102516.16;;;8.80;100.00
25430;BME280;13360;48.152;-1.788;2023-04-03T09:05:16;102532.66;;;8.92;100.00
25430;BME280;13360;48.152;-1.788;2023-04-03T09:07:46;102507.53;;;8.76;100.00
25430;BME280;13360;48.152;-1.788;2023-04-03T09:10:14;102533.97;;;9.01;100.00
25430;BME280;13360;48.152;-1.788;2023-04-03T09:12:44;102539.81;;;9.16;100.00
25430;BME280;13360;48.152;-1.788;2023-04-03T09:15:19;102522.41;;;9.15;100.00
25430;BME280;13360;48.152;-1.788;2023-04-03T09:18:15;102512.94;;;9.23;100.00
25430;BME280;13360;48.152;-1.788;2023-04-03T09:23:34;102483.97;;;9.09;100.00
25430;BME280;13360;48.152;-1.788;2023-04-03T09:26:09;102484.19;;;9.19;100.00
25430;BME280;13360;48.152;-1.788;2023-04-03T09:28:40;102494.81;;;9.27;100.00
25430;BME280;13360;48.152;-1.788;2023-04-03T09:31:19;102488.47;;;9.27;100.00
25430;BME280;13360;48.152;-1.788;2023-04-03T09:33:47;102481.63;;;9.29;100.00
25430;BME280;13360;48.152;-1.788;2023-04-03T09:36:13;102471.59;;;9.23;100.00
25430;BME280;13360;48.152;-1.788;2023-04-03T09:38:38;102479.59;;;9.25;100.00
25430;BME280;13360;48.152;-1.788;2023-04-03T09:41:14;102467.78;;;9.12;100.00
25430;BME280;13360;48.152;-1.788;2023-04-03T09:43:52;102474.03;;;9.08;100.00
25430;BME280;13360;48.152;-1.788;2023-04-03T09:46:33;102502.84;;;9.29;100.00
25430;BME280;13360;48.152;-1.788;2023-04-03T09:49:01;102485.53;;;9.16;100.00
25430;BME280;13360;48.152;-1.788;2023-04-03T09:51:28;102512.53;;;9.31;100.00
25430;BME280;13360;48.152;-1.788;2023-04-03T09:53:55;102488.38;;;9.22;100.00
25430;BME280;13360;48.152;-1.788;2023-04-03T10:01:39;102497.56;;;9.27;100.00
25430;BME280;13360;48.152;-1.788;2023-04-03T10:04:11;102489.56;;;9.26;100.00
25430;BME280;13360;48.152;-1.788;2023-04-03T10:06:48;102499.22;;;9.40;100.00
25430;BME280;13360;48.152;-1.788;2023-04-03T10:09:26;102473.94;;;9.31;100.00
25430;BME280;13360;48.152;-1.788;2023-04-03T10:12:12;102485.59;;;9.50;100.00
25430;BME280;13360;48.152;-1.788;2023-04-03T10:14:57;102460.78;;;9.50;100.00
25430;BME280;13360;48.152;-1.788;2023-04-03T10:23:08;102444.69;;;9.59;100.00
25430;BME280;13360;48.152;-1.788;2023-04-03T10:28:54;102431.97;;;9.74;100.00
25430;BME280;13360;48.152;-1.788;2023-04-03T10:36:47;102422.72;;;9.81;100.00
25430;BME280;13360;48.152;-1.788;2023-04-03T10:41:59;102416.75;;;9.72;100.00
25430;BME280;13360;48.152;-1.788;2023-04-03T10:44:31;102414.91;;;9.61;100.00
25430;BME280;13360;48.152;-1.788;2023-04-03T10:52:41;102433.25;;;9.84;100.00
25430;BME280;13360;48.152;-1.788;2023-04-03T10:57:39;102441.53;;;9.84;100.00
25430;BME280;13360;48.152;-1.788;2023-04-03T11:00:13;102433.31;;;9.89;100.00
25430;BME280;13360;48.152;-1.788;2023-04-03T11:02:50;102448.59;;;10.13;100.00
25430;BME280;13360;48.152;-1.788;2023-04-03T11:07:55;102416.84;;;10.27;100.00
25430;BME280;13360;48.152;-1.788;2023-04-03T11:10:43;102380.03;;;10.22;100.00
25430;BME280;13360;48.152;-1.788;2023-04-03T11:13:16;102374.31;;;10.28;100.00
25430;BME280;13360;48.152;-1.788;2023-04-03T11:15:43;102382.34;;;10.30;100.00
25430;BME280;13360;48.152;-1.788;2023-04-03T11:18:34;102401.59;;;10.25;100.00
25430;BME280;13360;48.152;-1.788;2023-04-03T11:21:06;102392.81;;;10.28;100.00
25430;BME280;13360;48.152;-1.788;2023-04-03T11:23:39;102403.50;;;10.41;100.00
25430;BME280;13360;48.152;-1.788;2023-04-03T11:26:12;102383.66;;;10.44;100.00
25430;BME280;13360;48.152;-1.788;2023-04-03T11:28:38;102352.47;;;10.10;100.00
25430;BME280;13360;48.152;-1.788;2023-04-03T11:36:58;102428.03;;;10.59;100.00
25430;BME280;13360;48.152;-1.788;2023-04-03T11:39:33;102367.50;;;10.58;100.00
25430;BME280;13360;48.152;-1.788;2023-04-03T11:42:15;102341.81;;;10.35;100.00
25430;BME280;13360;48.152;-1.788;2023-04-03T11:44:42;102352.53;;;10.32;100.00
25430;BME280;13360;48.152;-1.788;2023-04-03T11:47:09;102378.56;;;10.58;100.00
25430;BME280;13360;48.152;-1.788;2023-04-03T11:50:00;102391.47;;;10.74;100.00
25430;BME280;13360;48.152;-1.788;2023-04-03T11:58:24;102347.53;;;10.73;100.00
25430;BME280;13360;48.152;-1.788;2023-04-03T12:00:55;102355.47;;;10.91;100.00
25430;BME280;13360;48.152;-1.788;2023-04-03T12:16:19;102283.34;;;10.65;100.00
25430;BME280;13360;48.152;-1.788;2023-04-03T12:21:16;102264.19;;;10.86;100.00
25430;BME280;13360;48.152;-1.788;2023-04-03T12:26:41;102270.88;;;10.90;100.00
25430;BME280;13360;48.152;-1.788;2023-04-03T12:29:17;102328.34;;;11.15;100.00
25430;BME280;13360;48.152;-1.788;2023-04-03T12:36:06;102259.63;;;11.02;100.00
25430;BME280;13360;48.152;-1.788;2023-04-03T12:40:52;102266.50;;;11.26;100.00
25430;BME280;13360;48.152;-1.788;2023-04-03T12:43:37;102279.81;;;11.34;100.00
25430;BME280;13360;48.152;-1.788;2023-04-03T12:48:38;102269.84;;;11.33;100.00
25430;BME280;13360;48.152;-1.788;2023-04-03T12:51:05;102286.19;;;11.35;100.00
25430;BME280;13360;48.152;-1.788;2023-04-03T12:53:35;102234.06;;;11.21;100.00
25430;BME280;13360;48.152;-1.788;2023-04-03T12:56:27;102235.00;;;11.32;100.00
25430;BME280;13360;48.152;-1.788;2023-04-03T12:58:55;102245.53;;;11.35;100.00
25430;BME280;13360;48.152;-1.788;2023-04-03T13:01:24;102228.88;;;11.25;100.00
25430;BME280;13360;48.152;-1.788;2023-04-03T13:03:54;102249.84;;;11.21;100.00
25430;BME280;13360;48.152;-1.788;2023-04-03T13:06:23;102267.97;;;11.39;100.00
25430;BME280;13360;48.152;-1.788;2023-04-03T13:08:56;102267.13;;;11.38;100.00
25430;BME280;13360;48.152;-1.788;2023-04-03T13:11:27;102269.63;;;11.40;100.00
25430;BME280;13360;48.152;-1.788;2023-04-03T13:14:01;102249.22;;;11.46;100.00
25430;BME280;13360;48.152;-1.788;2023-04-03T13:16:29;102231.78;;;11.45;100.00
25430;BME280;13360;48.152;-1.788;2023-04-03T13:18:55;102226.28;;;11.50;100.00
25430;BME280;13360;48.152;-1.788;2023-04-03T13:21:32;102240.13;;;11.55;100.00
25430;BME280;13360;48.152;-1.788;2023-04-03T13:24:01;102194.38;;;11.43;100.00
25430;BME280;13360;48.152;-1.788;2023-04-03T13:26:30;102218.81;;;11.56;100.00
25430;BME280;13360;48.152;-1.788;2023-04-03T13:29:00;102222.44;;;11.61;100.00
25430;BME280;13360;48.152;-1.788;2023-04-03T13:31:38;102191.44;;;11.54;100.00
25430;BME280;13360;48.152;-1.788;2023-04-03T13:34:11;102192.81;;;11.52;100.00
25430;BME280;13360;48.152;-1.788;2023-04-03T13:39:05;102242.19;;;11.70;100.00
25430;BME280;13360;48.152;-1.788;2023-04-03T13:41:36;102226.41;;;11.71;100.00
25430;BME280;13360;48.152;-1.788;2023-04-03T13:46:55;102169.91;;;11.67;100.00
25430;BME280;13360;48.152;-1.788;2023-04-03T13:51:57;102173.25;;;11.69;100.00
25430;BME280;13360;48.152;-1.788;2023-04-03T13:54:31;102156.31;;;11.65;100.00
25430;BME280;13360;48.152;-1.788;2023-04-03T13:56:58;102156.09;;;11.67;100.00
25430;BME280;13360;48.152;-1.788;2023-04-03T13:59:35;102174.84;;;11.65;100.00
25430;BME280;13360;48.152;-1.788;2023-04-03T14:07:10;102152.78;;;11.75;100.00
25430;BME280;13360;48.152;-1.788;2023-04-03T14:09:36;102143.94;;;11.78;100.00
25430;BME280;13360;48.152;-1.788;2023-04-03T14:12:06;102155.06;;;11.83;100.00
25430;BME280;13360;48.152;-1.788;2023-04-03T14:14:35;102151.44;;;11.82;100.00
25430;BME280;13360;48.152;-1.788;2023-04-03T14:17:03;102137.59;;;11.82;100.00
25430;BME280;13360;48.152;-1.788;2023-04-03T14:19:35;102147.03;;;11.86;100.00
25430;BME280;13360;48.152;-1.788;2023-04-03T14:22:11;102149.03;;;11.96;100.00
25430;BME280;13360;48.152;-1.788;2023-04-03T14:24:37;102172.00;;;11.92;100.00
25430;BME280;13360;48.152;-1.788;2023-04-03T14:27:14;102173.09;;;11.90;100.00